Guadalupe, Arizona
Current Conditions -  °F | °C
As of 6:51 PM on Saturday 25 Oct 2014 (Local Time) from KPHX Reporting Station
Clear Clear  
Wind Chill: 88°   Ceiling: Unl
Heat Index: 88°   Visibility: 10mi
Dew Point: 51°   Wind: 7mph
Humidity: 28%   Direction: 240°WSW
Pressure: 29.89"   Gusts: NA
Location:  33.364°N, 111.931°W
Report Text: KPHX 260151Z 24006KT 10SM CLR 31/11 A2989 RMK AO2 SLP104 T03110106
Loading
Personal Weather Stations






























Interactive Weather Map
Tropical Storm Tracking
New forecast layout! Learn more

10-Day Weather Forecast

Advertisements
Track Severe Weather on mobile